KLUL/LUL METAR and TAF weather

Enter ICAO airport designator
Station Type Date Time Source
KLUL METAR 2019/10/23 02:15 UTC NOAA

KLUL 230215Z AUTO 31003KT 10SM CLR 10/08 A3016 RMK A02 T00990081


Station Type Date Time Source
KLUL Decoded METAR 2019/10/23 02:15 UTC NOAA

Station name not available
Oct 22, 2019 - 10:15 PM EDT / 2019.10.23 0215 UTC
Wind: from the NW (310 degrees) at 3 MPH (3 KT):0
Visibility: 10 mile(s):0
Sky conditions: clear
Temperature: 49.8 F (9.9 C)
Dew Point: 46.6 F (8.1 C)
Relative Humidity: 88%
Pressure (altimeter): 30.16 in. Hg (1021 hPa)
ob: KLUL 230215Z AUTO 31003KT 10SM CLR 10/08 A3016 RMK A02 T00990081
cycle: 2

Station Type Date Time Source
KLUL TAF UTC NOAA

Error!

Example: see airport list